createdAt,value
2023-04-02T00:01:01.518Z,100222.66
2023-04-02T00:04:14.813Z,100219.06
2023-04-02T00:06:47.047Z,100214.78
2023-04-02T00:09:16.607Z,100224.31
2023-04-02T00:11:57.381Z,100221.81
2023-04-02T00:14:30.361Z,100216.47
2023-04-02T00:17:35.198Z,100224.25
2023-04-02T00:20:07.441Z,100227.72
2023-04-02T00:22:53.038Z,100224.09
2023-04-02T00:25:30.222Z,100219.91
2023-04-02T00:28:00.445Z,100222.47
2023-04-02T00:30:28.925Z,100215.50
2023-04-02T00:33:01.545Z,100221.63
2023-04-02T00:35:31.864Z,100223.38
2023-04-02T00:38:02.734Z,100219.84
2023-04-02T00:40:32.519Z,100211.13
2023-04-02T00:43:04.672Z,100226.78
2023-04-02T00:45:39.633Z,100222.38
2023-04-02T00:48:38.155Z,100219.00
2023-04-02T00:51:26.172Z,100211.88
2023-04-02T00:53:56.519Z,100208.75
2023-04-02T00:56:42.795Z,100205.97
2023-04-02T00:59:32.712Z,100216.28
2023-04-02T01:02:22.816Z,100213.06
2023-04-02T01:05:15.226Z,100214.00
2023-04-02T01:08:01.330Z,100223.66
2023-04-02T01:11:12.927Z,100210.59
2023-04-02T01:14:08.215Z,100214.25
2023-04-02T01:17:04.447Z,100208.88
2023-04-02T01:20:07.889Z,100200.09
2023-04-02T01:23:09.443Z,100213.16
2023-04-02T01:25:51.823Z,100201.34
2023-04-02T01:28:29.819Z,100198.72
2023-04-02T01:31:01.860Z,100195.03
2023-04-02T01:33:34.142Z,100209.00
2023-04-02T01:36:15.456Z,100202.91
2023-04-02T01:39:12.474Z,100206.47
2023-04-02T01:41:51.703Z,100195.97
2023-04-02T01:44:52.225Z,100201.22
2023-04-02T01:47:27.799Z,100204.63
2023-04-02T01:50:20.194Z,100193.34
2023-04-02T01:52:53.160Z,100209.09
2023-04-02T01:55:32.541Z,100203.97
2023-04-02T01:58:14.528Z,100203.97
2023-04-02T02:00:56.156Z,100206.41
2023-04-02T02:03:28.234Z,100201.22
2023-04-02T02:05:59.692Z,100202.91
2023-04-02T02:09:00.686Z,100203.00
2023-04-02T02:11:31.023Z,100206.31
2023-04-02T02:14:32.057Z,100198.31
2023-04-02T02:17:04.644Z,100206.19
2023-04-02T02:19:41.404Z,100203.44
2023-04-02T02:22:22.379Z,100207.75
2023-04-02T02:24:51.781Z,100208.50
2023-04-02T02:27:28.357Z,100205.94
2023-04-02T02:30:29.502Z,100211.03
2023-04-02T02:33:08.939Z,100198.84
2023-04-02T02:36:06.639Z,100210.88
2023-04-02T02:39:12.866Z,100201.97
2023-04-02T02:41:50.426Z,100208.00
2023-04-02T02:44:26.654Z,100208.22
2023-04-02T02:47:04.077Z,100210.88
2023-04-02T02:49:36.847Z,100216.22
2023-04-02T02:52:09.772Z,100215.28
2023-04-02T02:54:52.382Z,100210.88
2023-04-02T02:57:30.265Z,100214.69
2023-04-02T03:00:02.348Z,100218.25
2023-04-02T03:02:41.909Z,100217.31
2023-04-02T03:05:22.367Z,100213.59
2023-04-02T03:07:56.737Z,100220.50
2023-04-02T03:10:54.942Z,100228.38
2023-04-02T03:13:39.238Z,100231.63
2023-04-02T03:16:47.301Z,100227.38
2023-04-02T03:19:40.978Z,100222.19
2023-04-02T03:22:21.999Z,100224.75
2023-04-02T03:25:20.176Z,100218.75
2023-04-02T03:27:52.290Z,100215.50
2023-04-02T03:30:48.452Z,100216.03
2023-04-02T03:33:49.164Z,100221.28
2023-04-02T03:36:31.258Z,100219.78
2023-04-02T03:39:16.837Z,100223.31
2023-04-02T03:42:22.261Z,100220.88
2023-04-02T03:45:03.290Z,100216.75
2023-04-02T03:47:39.023Z,100218.75
2023-04-02T03:50:23.770Z,100223.13
2023-04-02T03:53:01.566Z,100222.28
2023-04-02T03:55:48.355Z,100223.13
2023-04-02T03:58:41.638Z,100222.28
2023-04-02T04:01:21.887Z,100220.53
2023-04-02T04:03:54.383Z,100220.53
2023-04-02T04:06:27.793Z,100223.00
2023-04-02T04:09:24.710Z,100231.63
2023-04-02T04:12:14.054Z,100220.19
2023-04-02T04:14:57.088Z,100220.03
2023-04-02T04:17:42.526Z,100224.19
2023-04-02T04:20:46.386Z,100225.63
2023-04-02T04:23:30.843Z,100224.44
2023-04-02T04:26:27.849Z,100229.34
2023-04-02T04:29:43.585Z,100228.06
2023-04-02T04:32:34.119Z,100231.34
2023-04-02T04:35:26.386Z,100229.38
2023-04-02T04:38:23.364Z,100231.47
2023-04-02T04:41:14.582Z,100231.47
2023-04-02T04:44:19.009Z,100232.53
2023-04-02T04:47:03.152Z,100236.72
2023-04-02T04:49:51.086Z,100224.25
2023-04-02T04:52:41.067Z,100231.97
2023-04-02T04:55:30.130Z,100228.28
2023-04-02T04:59:05.092Z,100218.22
2023-04-02T05:01:49.156Z,100224.97
2023-04-02T05:04:44.051Z,100229.22
2023-04-02T05:07:32.461Z,100229.09
2023-04-02T05:10:17.341Z,100232.47
2023-04-02T05:12:59.834Z,100229.72
2023-04-02T05:15:35.647Z,100233.81
2023-04-02T05:18:26.289Z,100239.53
2023-04-02T05:21:17.194Z,100235.81
2023-04-02T05:23:54.885Z,100231.97
2023-04-02T05:26:33.230Z,100240.38
2023-04-02T05:29:15.302Z,100235.25
2023-04-02T05:31:59.245Z,100236.38
2023-04-02T05:34:40.532Z,100225.84
2023-04-02T05:37:21.607Z,100236.25
2023-04-02T05:40:06.982Z,100226.03
2023-04-02T05:42:49.814Z,100233.72
2023-04-02T05:45:41.322Z,100227.53
2023-04-02T05:48:23.309Z,100225.91
2023-04-02T05:51:04.492Z,100225.91
2023-04-02T05:53:47.098Z,100223.28
2023-04-02T05:56:32.325Z,100212.97
2023-04-02T05:59:18.847Z,100213.06
2023-04-02T06:01:53.850Z,100220.56
2023-04-02T06:04:32.176Z,100226.28
2023-04-02T06:07:23.676Z,100228.53
2023-04-02T06:10:13.417Z,100226.47
2023-04-02T06:12:54.004Z,100221.44
2023-04-02T06:15:23.963Z,100221.16
2023-04-02T06:18:04.928Z,100224.25
2023-04-02T06:20:36.407Z,100213.22
2023-04-02T06:23:19.654Z,100216.50
2023-04-02T06:26:23.349Z,100213.63
2023-04-02T06:28:55.516Z,100211.66
2023-04-02T06:31:36.016Z,100215.94
2023-04-02T06:34:18.081Z,100223.75
2023-04-02T06:37:11.957Z,100216.41
2023-04-02T06:39:40.244Z,100217.06
2023-04-02T06:42:35.431Z,100216.84
2023-04-02T06:45:30.850Z,100218.03
2023-04-02T06:48:21.690Z,100224.81
2023-04-02T06:51:01.812Z,100219.53
2023-04-02T06:53:36.330Z,100220.84
2023-04-02T06:56:37.468Z,100225.38
2023-04-02T06:59:07.827Z,100217.91
2023-04-02T07:01:43.467Z,100215.00
2023-04-02T07:04:13.182Z,100222.25
2023-04-02T07:06:44.475Z,100219.47
2023-04-02T07:09:15.491Z,100224.06
2023-04-02T07:11:48.313Z,100223.94
2023-04-02T07:14:18.031Z,100217.63
2023-04-02T07:16:49.835Z,100219.91
2023-04-02T07:19:22.299Z,100219.59
2023-04-02T07:21:54.417Z,100215.91
2023-04-02T07:24:23.855Z,100218.75
2023-04-02T07:26:51.836Z,100219.34
2023-04-02T07:29:20.031Z,100217.56
2023-04-02T07:31:48.098Z,100212.13
2023-04-02T07:34:15.798Z,100214.03
2023-04-02T07:36:44.433Z,100218.97
2023-04-02T07:39:12.367Z,100208.19
2023-04-02T07:41:57.383Z,100206.75
2023-04-02T07:44:25.486Z,100206.97
2023-04-02T07:46:53.833Z,100204.78
2023-04-02T07:49:21.698Z,100208.00
2023-04-02T07:51:51.488Z,100204.00
2023-04-02T07:54:19.274Z,100205.31
2023-04-02T07:56:47.183Z,100210.50
2023-04-02T07:59:14.794Z,100210.97
2023-04-02T08:01:43.147Z,100205.66
2023-04-02T08:04:21.935Z,100210.81
2023-04-02T08:06:53.056Z,100209.28
2023-04-02T08:09:20.924Z,100195.25
2023-04-02T08:11:48.522Z,100196.38
2023-04-02T08:14:16.416Z,100202.75
2023-04-02T08:16:52.244Z,100194.16
2023-04-02T08:19:25.247Z,100198.06
2023-04-02T08:21:54.502Z,100196.38
2023-04-02T08:24:22.409Z,100196.53
2023-04-02T08:26:54.113Z,100190.16
2023-04-02T08:29:22.687Z,100181.28
2023-04-02T08:31:51.190Z,100187.31
2023-04-02T08:34:18.872Z,100185.44
2023-04-02T08:36:47.581Z,100185.75
2023-04-02T08:39:15.700Z,100183.59
2023-04-02T08:42:07.613Z,100184.19
2023-04-02T08:45:23.087Z,100183.97
2023-04-02T08:47:55.532Z,100179.31
2023-04-02T08:50:41.729Z,100184.34
2023-04-02T08:53:23.303Z,100189.75
2023-04-02T08:56:17.913Z,100191.75
2023-04-02T08:58:54.446Z,100190.16
2023-04-02T09:02:03.395Z,100187.44
2023-04-02T09:04:31.992Z,100193.75
2023-04-02T09:07:00.860Z,100190.63
2023-04-02T09:09:28.681Z,100187.03
2023-04-02T09:12:00.914Z,100185.78
2023-04-02T09:14:43.558Z,100179.56
2023-04-02T09:17:22.830Z,100191.38
2023-04-02T09:20:00.643Z,100187.16
2023-04-02T09:22:31.818Z,100185.44
2023-04-02T09:25:02.502Z,100181.66
2023-04-02T09:27:36.706Z,100183.75
2023-04-02T09:30:29.511Z,100183.47
2023-04-02T09:33:07.911Z,100185.59
2023-04-02T09:35:50.010Z,100177.66
2023-04-02T09:38:28.195Z,100181.00
2023-04-02T09:41:07.461Z,100182.78
2023-04-02T09:43:37.337Z,100180.34
2023-04-02T09:46:17.858Z,100182.91
2023-04-02T09:48:53.419Z,100177.09
2023-04-02T09:51:25.732Z,100184.09
2023-04-02T09:54:02.222Z,100190.91
2023-04-02T09:57:01.102Z,100191.59
2023-04-02T09:59:29.114Z,100185.59
2023-04-02T10:02:04.565Z,100193.03
2023-04-02T10:04:38.808Z,100195.47
2023-04-02T10:07:07.142Z,100196.34
2023-04-02T10:09:38.940Z,100190.59
2023-04-02T10:12:07.694Z,100186.31
2023-04-02T10:14:46.350Z,100190.47
2023-04-02T10:17:36.947Z,100190.47
2023-04-02T10:20:28.518Z,100200.41
2023-04-02T10:22:57.918Z,100192.50
2023-04-02T10:25:31.820Z,100192.59
2023-04-02T10:28:04.861Z,100197.69
2023-04-02T10:30:44.296Z,100183.06
2023-04-02T10:33:21.514Z,100182.34
2023-04-02T10:35:59.850Z,100182.44
2023-04-02T10:38:54.008Z,100182.00
2023-04-02T10:42:02.203Z,100180.94
2023-04-02T10:44:41.896Z,100180.09
2023-04-02T10:47:52.296Z,100187.28
2023-04-02T10:50:38.316Z,100182.09
2023-04-02T10:53:16.544Z,100189.09
2023-04-02T10:55:49.702Z,100191.75
2023-04-02T10:58:30.150Z,100183.84
2023-04-02T11:01:21.527Z,100183.22
2023-04-02T11:03:57.894Z,100177.97
2023-04-02T11:06:48.422Z,100183.50
2023-04-02T11:09:21.392Z,100185.19
2023-04-02T11:11:52.908Z,100180.22
2023-04-02T11:14:29.826Z,100174.59
2023-04-02T11:17:00.649Z,100175.25
2023-04-02T11:19:34.111Z,100174.16
2023-04-02T11:22:14.982Z,100172.69
2023-04-02T11:24:48.718Z,100168.34
2023-04-02T11:27:28.104Z,100171.50
2023-04-02T11:30:03.962Z,100168.13
2023-04-02T11:32:42.795Z,100172.06
2023-04-02T11:35:36.520Z,100160.06
2023-04-02T11:38:09.671Z,100162.72
2023-04-02T11:40:41.875Z,100155.91
2023-04-02T11:43:34.448Z,100157.28
2023-04-02T11:46:21.667Z,100162.56
2023-04-02T11:48:51.049Z,100159.09
2023-04-02T11:51:22.593Z,100158.88
2023-04-02T11:53:55.186Z,100163.97
2023-04-02T11:56:47.280Z,100158.34
2023-04-02T11:59:22.489Z,100151.16
2023-04-02T12:01:57.232Z,100145.84
2023-04-02T12:04:48.189Z,100145.53
2023-04-02T12:07:27.210Z,100150.84
2023-04-02T12:09:59.104Z,100151.16
2023-04-02T12:12:29.535Z,100144.47
2023-04-02T12:14:58.524Z,100149.25
2023-04-02T12:17:31.735Z,100145.34
2023-04-02T12:20:09.577Z,100149.66
2023-04-02T12:22:55.954Z,100147.00
2023-04-02T12:25:23.497Z,100142.38
2023-04-02T12:28:24.400Z,100141.00
2023-04-02T12:31:04.367Z,100135.69
2023-04-02T12:33:37.431Z,100147.22
2023-04-02T12:36:17.032Z,100135.66
2023-04-02T12:38:56.692Z,100139.75
2023-04-02T12:41:30.096Z,100135.91
2023-04-02T12:43:59.377Z,100142.47
2023-04-02T12:46:27.906Z,100130.44
2023-04-02T12:49:05.335Z,100135.63
2023-04-02T12:51:36.342Z,100137.34
2023-04-02T12:54:04.678Z,100142.47
2023-04-02T12:56:32.431Z,100142.09
2023-04-02T12:59:02.239Z,100141.34
2023-04-02T13:01:32.065Z,100137.22
2023-04-02T13:04:04.556Z,100146.56
2023-04-02T13:06:35.087Z,100146.34
2023-04-02T13:09:04.881Z,100134.69
2023-04-02T13:11:40.734Z,100158.81
2023-04-02T13:14:20.303Z,100141.81
2023-04-02T13:16:48.479Z,100153.16
2023-04-02T13:19:18.421Z,100150.44
2023-04-02T13:21:46.244Z,100157.00
2023-04-02T13:24:18.380Z,100152.84
2023-04-02T13:26:48.340Z,100159.03
2023-04-02T13:29:21.498Z,100159.09
2023-04-02T13:31:49.686Z,100165.06
2023-04-02T13:34:18.357Z,100167.16
2023-04-02T13:36:47.412Z,100170.72
2023-04-02T13:39:15.261Z,100180.88
2023-04-02T13:41:51.183Z,100170.69
2023-04-02T13:44:22.474Z,100178.94
2023-04-02T13:46:50.121Z,100190.06
2023-04-02T13:49:18.347Z,100188.28
2023-04-02T13:51:49.449Z,100190.63
2023-04-02T13:54:43.152Z,100191.75
2023-04-02T13:57:10.856Z,100193.56
2023-04-02T13:59:38.544Z,100193.16
2023-04-02T14:02:10.590Z,100193.25
2023-04-02T14:04:43.670Z,100195.88
2023-04-02T14:07:11.429Z,100190.41
2023-04-02T14:09:50.455Z,100187.88
2023-04-02T14:12:26.874Z,100189.44
2023-04-02T14:15:09.504Z,100186.41
2023-04-02T14:17:49.980Z,100189.13
2023-04-02T14:20:49.223Z,100189.47
2023-04-02T14:23:29.788Z,100198.84
2023-04-02T14:26:12.870Z,100199.78
2023-04-02T14:28:59.090Z,100197.50
2023-04-02T14:31:42.180Z,100188.13
2023-04-02T14:34:18.379Z,100196.56
2023-04-02T14:37:07.077Z,100203.81
2023-04-02T14:39:56.442Z,100203.56
2023-04-02T14:43:03.053Z,100201.44
2023-04-02T14:46:04.426Z,100206.00
2023-04-02T14:48:47.970Z,100203.63
2023-04-02T14:51:44.265Z,100203.72
2023-04-02T14:54:38.891Z,100210.94
2023-04-02T14:57:18.811Z,100203.97
2023-04-02T15:00:05.789Z,100202.84
2023-04-02T15:02:56.448Z,100207.53
2023-04-02T15:05:45.432Z,100212.88
2023-04-02T15:08:26.599Z,100205.69
2023-04-02T15:10:57.715Z,100222.00
2023-04-02T15:14:06.158Z,100214.16
2023-04-02T15:16:36.597Z,100221.63
2023-04-02T15:19:06.753Z,100219.59
2023-04-02T15:21:49.825Z,100208.34
2023-04-02T15:24:43.403Z,100212.25
2023-04-02T15:27:48.692Z,100216.59
2023-04-02T15:30:23.588Z,100213.88
2023-04-02T15:32:57.153Z,100216.00
2023-04-02T15:35:34.140Z,100223.28
2023-04-02T15:38:22.849Z,100218.34
2023-04-02T15:41:04.275Z,100218.63
2023-04-02T15:44:07.849Z,100228.00
2023-04-02T15:46:58.208Z,100226.72
2023-04-02T15:49:58.556Z,100225.16
2023-04-02T15:52:37.775Z,100227.19
2023-04-02T15:55:25.962Z,100220.22
2023-04-02T15:58:19.596Z,100225.50
2023-04-02T16:00:57.106Z,100216.72
2023-04-02T16:03:51.558Z,100220.28
2023-04-02T16:06:35.081Z,100222.91
2023-04-02T16:09:27.066Z,100217.34
2023-04-02T16:12:11.994Z,100216.19
2023-04-02T16:14:42.748Z,100212.38
2023-04-02T16:17:27.499Z,100214.00
2023-04-02T16:20:24.445Z,100214.63
2023-04-02T16:23:01.449Z,100217.06
2023-04-02T16:25:39.154Z,100220.41
2023-04-02T16:28:35.940Z,100223.59
2023-04-02T16:31:16.599Z,100217.69
2023-04-02T16:34:11.699Z,100225.47
2023-04-02T16:36:49.127Z,100221.91
2023-04-02T16:39:31.726Z,100231.66
2023-04-02T16:42:10.278Z,100224.31
2023-04-02T16:45:03.253Z,100224.53
2023-04-02T16:47:49.856Z,100225.78
2023-04-02T16:50:38.975Z,100214.97
2023-04-02T16:53:34.223Z,100217.06
2023-04-02T16:56:04.497Z,100221.59
2023-04-02T16:58:35.592Z,100218.88
2023-04-02T17:01:14.485Z,100217.81
2023-04-02T17:04:21.535Z,100217.72
2023-04-02T17:07:07.941Z,100209.63
2023-04-02T17:10:21.782Z,100212.69
2023-04-02T17:13:02.438Z,100209.22
2023-04-02T17:15:39.614Z,100207.50
2023-04-02T17:18:27.182Z,100210.81
2023-04-02T17:21:00.750Z,100209.84
2023-04-02T17:23:29.805Z,100223.44
2023-04-02T17:26:05.990Z,100214.53
2023-04-02T17:28:38.166Z,100214.28
2023-04-02T17:31:19.700Z,100224.53
2023-04-02T17:33:47.422Z,100223.91
2023-04-02T17:36:27.313Z,100224.84
2023-04-02T17:39:08.054Z,100214.78
2023-04-02T17:42:29.276Z,100219.19
2023-04-02T17:45:34.460Z,100206.63
2023-04-02T17:48:07.991Z,100201.59
2023-04-02T17:50:59.453Z,100197.41
2023-04-02T17:53:45.897Z,100181.94
2023-04-02T17:56:36.544Z,100184.63
2023-04-02T17:59:26.401Z,100178.69
2023-04-02T18:02:30.590Z,100182.06
2023-04-02T18:05:27.775Z,100178.91
2023-04-02T18:08:14.684Z,100181.13
2023-04-02T18:11:03.932Z,100182.94
2023-04-02T18:13:36.733Z,100173.81
2023-04-02T18:16:21.624Z,100172.81
2023-04-02T18:19:37.697Z,100164.22
2023-04-02T18:22:14.124Z,100162.38
2023-04-02T18:24:56.886Z,100155.22
2023-04-02T18:27:27.784Z,100149.03
2023-04-02T18:30:14.042Z,100154.28
2023-04-02T18:33:03.985Z,100149.13
2023-04-02T18:35:43.446Z,100130.69
2023-04-02T18:38:31.804Z,100129.41
2023-04-02T18:41:19.751Z,100125.94
2023-04-02T18:44:01.456Z,100126.06
2023-04-02T18:46:52.421Z,100116.47
2023-04-02T18:49:27.350Z,100115.03
2023-04-02T18:52:12.340Z,100110.13
2023-04-02T18:54:57.127Z,100111.72
2023-04-02T18:57:30.572Z,100114.53
2023-04-02T19:00:02.261Z,100112.56
2023-04-02T19:02:44.338Z,100114.97
2023-04-02T19:05:31.389Z,100120.97
2023-04-02T19:08:24.662Z,100118.97
2023-04-02T19:10:58.156Z,100109.75
2023-04-02T19:13:26.724Z,100120.28
2023-04-02T19:15:54.777Z,100116.47
2023-04-02T19:18:43.632Z,100113.41
2023-04-02T19:21:50.497Z,100104.25
2023-04-02T19:24:44.849Z,100114.34
2023-04-02T19:27:34.303Z,100108.38
2023-04-02T19:30:20.598Z,100103.59
2023-04-02T19:32:55.085Z,100104.31
2023-04-02T19:35:36.405Z,100102.97
2023-04-02T19:38:10.742Z,100101.09
2023-04-02T19:40:47.733Z,100108.66
2023-04-02T19:43:16.090Z,100097.88
2023-04-02T19:45:47.927Z,100100.09
2023-04-02T19:48:24.852Z,100096.84
2023-04-02T19:50:53.902Z,100085.28
2023-04-02T19:53:22.116Z,100084.09
2023-04-02T19:55:50.804Z,100079.16
2023-04-02T19:58:32.404Z,100083.41
2023-04-02T20:01:00.820Z,100076.63
2023-04-02T20:03:30.523Z,100073.75
2023-04-02T20:06:02.488Z,100071.50
2023-04-02T20:08:32.344Z,100078.56
2023-04-02T20:11:00.221Z,100077.03
2023-04-02T20:13:31.019Z,100081.72
2023-04-02T20:16:04.400Z,100078.00
2023-04-02T20:18:32.508Z,100066.94
2023-04-02T20:21:08.877Z,100066.94
2023-04-02T20:23:39.006Z,100054.94
2023-04-02T20:26:08.256Z,100050.53
2023-04-02T20:28:36.935Z,100057.97
2023-04-02T20:31:13.469Z,100055.69
2023-04-02T20:33:42.290Z,100063.75
2023-04-02T20:36:13.085Z,100055.00
2023-04-02T20:38:41.069Z,100053.22
2023-04-02T20:41:09.764Z,100048.53
2023-04-02T20:43:42.949Z,100045.22
2023-04-02T20:46:12.754Z,100046.59
2023-04-02T20:48:41.014Z,100041.41
2023-04-02T20:51:11.614Z,100041.31
2023-04-02T20:53:40.238Z,100038.41
2023-04-02T20:56:13.194Z,100046.91
2023-04-02T20:58:45.507Z,100045.00
2023-04-02T21:01:19.162Z,100040.16
2023-04-02T21:03:50.521Z,100041.75
2023-04-02T21:06:21.117Z,100042.63
2023-04-02T21:08:50.032Z,100039.53
2023-04-02T21:11:22.223Z,100038.38
2023-04-02T21:13:50.737Z,100037.66
2023-04-02T21:16:31.750Z,100032.72
2023-04-02T21:19:04.746Z,100038.94
2023-04-02T21:21:33.062Z,100042.66
2023-04-02T21:24:06.831Z,100039.34
2023-04-02T21:26:38.030Z,100041.56
2023-04-02T21:29:06.510Z,100044.50
2023-04-02T21:31:37.154Z,100045.28
2023-04-02T21:34:06.279Z,100031.16
2023-04-02T21:36:39.568Z,100030.94
2023-04-02T21:39:11.646Z,100037.44
2023-04-02T21:41:43.073Z,100035.81
2023-04-02T21:44:15.004Z,100040.25
2023-04-02T21:46:44.234Z,100043.97
2023-04-02T21:49:18.608Z,100040.97
2023-04-02T21:51:47.741Z,100037.16
2023-04-02T21:54:16.802Z,100045.00
2023-04-02T21:56:46.500Z,100044.41
2023-04-02T21:59:16.587Z,100041.28
2023-04-02T22:01:50.359Z,100044.28
2023-04-02T22:04:24.859Z,100043.75
2023-04-02T22:06:54.967Z,100041.97
2023-04-02T22:09:25.954Z,100033.22
2023-04-02T22:11:59.427Z,100043.06
2023-04-02T22:14:29.089Z,100045.34
2023-04-02T22:16:58.993Z,100045.72
2023-04-02T22:19:29.584Z,100040.78
2023-04-02T22:21:57.897Z,100040.63
2023-04-02T22:24:27.594Z,100034.06
2023-04-02T22:26:55.857Z,100038.53
2023-04-02T22:29:24.038Z,100033.00
2023-04-02T22:31:52.363Z,100032.91
2023-04-02T22:34:21.127Z,100021.38
2023-04-02T22:36:49.089Z,100022.16
2023-04-02T22:39:17.242Z,100009.16
2023-04-02T22:41:45.133Z,100009.78
2023-04-02T22:44:15.455Z,100006.31
2023-04-02T22:46:43.576Z,100005.59
2023-04-02T22:49:11.916Z,100002.19
2023-04-02T22:51:39.797Z,99988.44
2023-04-02T22:54:07.538Z,99991.25
2023-04-02T22:56:37.692Z,99987.06
2023-04-02T22:59:05.966Z,99985.06
2023-04-02T23:01:36.231Z,99970.97
2023-04-02T23:04:05.491Z,99971.13
2023-04-02T23:06:36.657Z,99966.03
2023-04-02T23:09:07.903Z,99966.19
2023-04-02T23:11:41.919Z,99968.81
2023-04-02T23:14:12.893Z,99968.91
2023-04-02T23:16:40.927Z,99968.06
2023-04-02T23:19:12.269Z,99959.25
2023-04-02T23:21:41.161Z,99960.09
2023-04-02T23:24:12.505Z,99961.94
2023-04-02T23:26:40.576Z,99954.91
2023-04-02T23:29:09.897Z,99953.13
2023-04-02T23:31:37.989Z,99953.06
2023-04-02T23:34:05.960Z,99957.38
2023-04-02T23:36:35.655Z,99953.06
2023-04-02T23:39:14.677Z,99943.47
2023-04-02T23:41:44.251Z,99938.97
2023-04-02T23:44:12.427Z,99932.94
2023-04-02T23:46:42.213Z,99929.63
2023-04-02T23:49:11.538Z,99924.81
2023-04-02T23:51:40.850Z,99917.63
2023-04-02T23:54:08.899Z,99922.03
2023-04-02T23:56:39.071Z,99913.28
2023-04-02T23:59:07.562Z,99904.63
